createdAt,value
2022-11-05T00:00:39.016Z,6.57
2022-11-05T00:03:26.759Z,6.90
2022-11-05T00:06:32.417Z,6.20
2022-11-05T00:09:17.647Z,7.57
2022-11-05T00:12:02.743Z,6.47
2022-11-05T00:14:48.154Z,5.60
2022-11-05T00:17:14.876Z,5.63
2022-11-05T00:19:41.568Z,5.23
2022-11-05T00:22:26.762Z,6.13
2022-11-05T00:25:11.916Z,6.53
2022-11-05T00:27:38.624Z,6.93
2022-11-05T00:30:09.664Z,5.40
2022-11-05T00:32:36.429Z,5.40
2022-11-05T00:35:03.283Z,5.43
2022-11-05T00:37:30.204Z,4.93
2022-11-05T00:39:56.923Z,4.90
2022-11-05T00:42:42.356Z,4.67
2022-11-05T00:45:09.659Z,4.50
2022-11-05T00:47:54.860Z,5.53
2022-11-05T00:50:22.451Z,5.73
2022-11-05T00:53:00.191Z,5.60
2022-11-05T00:55:40.969Z,5.93
2022-11-05T00:58:12.335Z,4.77
2022-11-05T01:00:43.665Z,5.73
2022-11-05T01:03:15.100Z,5.07
2022-11-05T01:06:11.318Z,8.10
2022-11-05T01:08:39.379Z,5.70
2022-11-05T01:11:35.055Z,5.00
2022-11-05T01:14:09.187Z,6.00
2022-11-05T01:16:37.445Z,4.97
2022-11-05T01:19:06.556Z,5.97
2022-11-05T01:21:33.753Z,4.87
2022-11-05T01:24:01.180Z,7.73
2022-11-05T01:26:27.882Z,4.87
2022-11-05T01:28:57.376Z,4.93
2022-11-05T01:31:24.861Z,4.77
2022-11-05T01:33:51.681Z,4.30
2022-11-05T01:36:18.702Z,4.27
2022-11-05T01:38:45.562Z,4.80
2022-11-05T01:41:12.271Z,6.87
2022-11-05T01:43:55.444Z,8.87
2022-11-05T01:46:37.961Z,5.47
2022-11-05T01:49:26.584Z,6.23
2022-11-05T01:51:55.662Z,6.20
2022-11-05T01:54:29.468Z,6.73
2022-11-05T01:57:05.089Z,5.50
2022-11-05T01:59:39.670Z,4.63
2022-11-05T02:02:08.201Z,5.00
2022-11-05T02:04:43.304Z,5.63
2022-11-05T02:07:11.693Z,4.47
2022-11-05T02:10:01.046Z,6.73
2022-11-05T02:12:28.937Z,4.63
2022-11-05T02:14:58.964Z,5.17
2022-11-05T02:17:52.957Z,4.43
2022-11-05T02:20:49.424Z,5.30
2022-11-05T02:24:04.565Z,5.83
2022-11-05T02:27:06.683Z,4.13
2022-11-05T02:29:36.429Z,4.40
2022-11-05T02:32:45.310Z,4.60
2022-11-05T02:35:59.789Z,4.53
2022-11-05T02:38:49.519Z,4.13
2022-11-05T02:41:40.572Z,4.20
2022-11-05T02:44:35.075Z,4.47
2022-11-05T02:47:23.834Z,3.77
2022-11-05T02:50:21.013Z,6.77
2022-11-05T02:53:08.818Z,6.47
2022-11-05T02:56:09.247Z,5.17
2022-11-05T02:58:35.951Z,4.43
2022-11-05T03:01:06.722Z,4.70
2022-11-05T03:03:45.570Z,4.70
2022-11-05T03:06:47.756Z,4.67
2022-11-05T03:10:27.234Z,5.07
2022-11-05T03:13:17.205Z,4.30
2022-11-05T03:16:02.408Z,4.53
2022-11-05T03:18:58.393Z,4.20
2022-11-05T03:47:02.689Z,4.17
2022-11-05T03:49:37.621Z,4.70
2022-11-05T03:52:08.985Z,4.17
2022-11-05T03:54:36.332Z,4.97
2022-11-05T03:57:18.307Z,4.23
2022-11-05T03:59:49.070Z,5.40
2022-11-05T04:02:19.995Z,3.97
2022-11-05T04:04:47.064Z,4.27
2022-11-05T04:07:32.280Z,4.20
2022-11-05T04:10:18.174Z,6.60
2022-11-05T04:13:03.528Z,4.80
2022-11-05T04:15:51.338Z,4.20
2022-11-05T04:18:18.092Z,4.20
2022-11-05T04:21:03.530Z,4.33
2022-11-05T04:23:48.567Z,4.70
2022-11-05T04:26:15.301Z,6.17
2022-11-05T04:29:03.844Z,10.03
2022-11-05T04:31:34.511Z,4.70
2022-11-05T04:34:01.344Z,4.60
2022-11-05T04:36:28.361Z,4.13
2022-11-05T04:38:55.305Z,4.47
2022-11-05T04:41:22.107Z,5.23
2022-11-05T04:43:48.909Z,4.17
2022-11-05T04:46:15.709Z,5.67
2022-11-05T04:48:42.394Z,4.17
2022-11-05T04:51:09.086Z,5.07
2022-11-05T04:53:35.816Z,5.50
2022-11-05T04:56:18.465Z,5.23
2022-11-05T04:58:45.321Z,4.70
2022-11-05T05:01:22.088Z,5.03
2022-11-05T05:03:50.843Z,4.50
2022-11-05T05:06:18.715Z,4.43
2022-11-05T05:08:47.841Z,4.90
2022-11-05T05:11:18.642Z,4.30
2022-11-05T05:13:46.040Z,3.97
2022-11-05T05:16:25.777Z,4.63
2022-11-05T05:18:54.133Z,6.20
2022-11-05T05:21:38.476Z,4.10
2022-11-05T05:24:12.784Z,5.20
2022-11-05T05:26:43.842Z,5.40
2022-11-05T05:29:11.804Z,8.03
2022-11-05T05:31:38.663Z,4.87
2022-11-05T05:34:07.512Z,5.67
2022-11-05T05:36:34.432Z,5.27
2022-11-05T05:39:01.171Z,4.03
2022-11-05T05:41:27.968Z,5.03
2022-11-05T05:43:54.707Z,4.50
2022-11-05T05:46:21.407Z,4.97
2022-11-05T05:48:51.077Z,4.83
2022-11-05T05:51:19.216Z,4.47
2022-11-05T05:53:46.215Z,5.40
2022-11-05T05:56:14.963Z,5.13
2022-11-05T05:58:41.919Z,6.57
2022-11-05T06:01:18.237Z,5.47
2022-11-05T06:03:45.784Z,6.47
2022-11-05T06:06:13.978Z,6.57
2022-11-05T06:08:42.350Z,7.07
2022-11-05T06:11:09.311Z,6.10
2022-11-05T06:13:37.296Z,5.53
2022-11-05T06:16:07.532Z,5.40
2022-11-05T06:18:35.450Z,5.03
2022-11-05T06:21:12.547Z,5.40
2022-11-05T06:23:42.702Z,9.90
2022-11-05T06:26:16.311Z,7.57
2022-11-05T06:28:43.763Z,5.43
2022-11-05T06:31:12.945Z,6.27
2022-11-05T06:33:40.512Z,6.20
2022-11-05T06:36:11.429Z,7.53
2022-11-05T06:38:38.168Z,5.40
2022-11-05T06:41:10.050Z,5.93
2022-11-05T06:43:37.972Z,5.50
2022-11-05T06:46:05.190Z,6.23
2022-11-05T06:48:31.925Z,5.37
2022-11-05T06:50:58.683Z,5.47
2022-11-05T06:53:25.640Z,5.10
2022-11-05T06:55:52.342Z,6.07
2022-11-05T06:58:19.067Z,4.93
2022-11-05T07:00:46.220Z,5.20
2022-11-05T07:03:13.575Z,6.97
2022-11-05T07:05:46.263Z,5.13
2022-11-05T07:08:13.245Z,5.13
2022-11-05T07:10:40.092Z,5.80
2022-11-05T07:13:08.685Z,5.67
2022-11-05T07:15:37.292Z,5.33
2022-11-05T07:18:07.166Z,4.70
2022-11-05T07:20:34.884Z,5.77
2022-11-05T07:23:07.934Z,5.87
2022-11-05T07:25:35.064Z,5.37
2022-11-05T07:28:03.552Z,5.43
2022-11-05T07:30:32.248Z,6.50
2022-11-05T07:32:59.222Z,6.67
2022-11-05T07:35:26.894Z,5.43
2022-11-05T07:37:55.059Z,6.33
2022-11-05T07:40:25.306Z,6.57
2022-11-05T07:42:57.927Z,9.33
2022-11-05T07:45:26.415Z,16.13
2022-11-05T07:47:55.191Z,18.20
2022-11-05T07:50:24.967Z,16.40
2022-11-05T07:52:51.930Z,13.67
2022-11-05T07:55:20.148Z,14.90
2022-11-05T07:57:50.166Z,19.97
2022-11-05T08:00:23.522Z,22.97
2022-11-05T08:03:09.014Z,18.10
2022-11-05T08:05:39.686Z,12.77
2022-11-05T08:08:09.046Z,12.27
2022-11-05T08:10:37.709Z,12.40
2022-11-05T08:13:07.254Z,14.37
2022-11-05T08:15:34.981Z,16.50
2022-11-05T08:18:08.335Z,15.33
2022-11-05T08:20:36.173Z,17.43
2022-11-05T08:23:03.014Z,16.67
2022-11-05T08:25:30.030Z,12.30
2022-11-05T08:27:58.368Z,12.67
2022-11-05T08:30:26.065Z,10.13
2022-11-05T08:33:08.672Z,13.57
2022-11-05T08:35:37.327Z,9.47
2022-11-05T08:38:07.552Z,10.37
2022-11-05T08:40:36.233Z,8.30
2022-11-05T08:43:06.590Z,9.57
2022-11-05T08:45:35.419Z,10.23
2022-11-05T08:48:12.067Z,10.07
2022-11-05T08:50:39.265Z,10.17
2022-11-05T08:53:07.775Z,8.50
2022-11-05T08:55:35.064Z,8.57
2022-11-05T08:58:05.976Z,9.20
2022-11-05T09:00:36.496Z,8.90
2022-11-05T09:03:06.583Z,10.40
2022-11-05T09:05:37.962Z,10.10
2022-11-05T09:08:24.993Z,10.10
2022-11-05T09:10:52.287Z,8.37
2022-11-05T09:13:20.282Z,9.53
2022-11-05T09:15:51.319Z,9.00
2022-11-05T09:18:19.909Z,8.47
2022-11-05T09:20:47.289Z,10.47
2022-11-05T09:23:15.365Z,13.80
2022-11-05T09:25:42.688Z,12.07
2022-11-05T09:28:16.736Z,11.90
2022-11-05T09:30:47.542Z,11.83
2022-11-05T09:33:15.038Z,10.53
2022-11-05T09:35:42.730Z,9.73
2022-11-05T09:38:10.031Z,10.97
2022-11-05T09:41:07.217Z,10.43
2022-11-05T09:43:48.379Z,9.73
2022-11-05T09:47:06.403Z,9.33
2022-11-05T09:49:39.985Z,8.83
2022-11-05T09:52:18.317Z,8.13
2022-11-05T09:54:45.966Z,9.23
2022-11-05T09:57:20.216Z,8.37
2022-11-05T10:00:04.239Z,8.03
2022-11-05T10:02:45.921Z,9.60
2022-11-05T10:05:14.666Z,8.33
2022-11-05T10:07:47.350Z,6.77
2022-11-05T10:10:39.413Z,8.70
2022-11-05T10:13:24.748Z,9.97
2022-11-05T10:16:05.023Z,8.00
2022-11-05T10:18:38.475Z,9.07
2022-11-05T10:21:07.112Z,8.97
2022-11-05T10:23:34.355Z,7.40
2022-11-05T10:26:10.408Z,7.20
2022-11-05T10:28:37.271Z,7.73
2022-11-05T10:31:12.516Z,7.33
2022-11-05T10:33:54.270Z,8.07
2022-11-05T10:36:31.948Z,7.90
2022-11-05T10:39:12.291Z,8.70
2022-11-05T10:42:09.570Z,7.93
2022-11-05T10:45:03.856Z,8.07
2022-11-05T10:48:15.584Z,7.57
2022-11-05T10:50:44.553Z,7.27
2022-11-05T10:53:25.191Z,7.70
2022-11-05T10:55:53.925Z,7.90
2022-11-05T10:58:29.003Z,7.37
2022-11-05T11:00:55.721Z,5.83
2022-11-05T11:03:45.249Z,7.43
2022-11-05T11:06:31.310Z,7.97
2022-11-05T11:09:03.489Z,7.70
2022-11-05T11:11:41.320Z,7.53
2022-11-05T11:14:13.768Z,8.97
2022-11-05T11:16:43.584Z,8.57
2022-11-05T11:19:34.296Z,13.60
2022-11-05T11:22:03.924Z,11.67
2022-11-05T11:24:39.008Z,9.13
2022-11-05T11:27:28.829Z,9.00
2022-11-05T11:30:00.268Z,11.10
2022-11-05T11:32:34.959Z,10.50
2022-11-05T11:35:02.535Z,10.27
2022-11-05T11:37:35.329Z,9.90
2022-11-05T11:40:16.292Z,8.97
2022-11-05T11:42:48.828Z,8.43
2022-11-05T11:45:15.543Z,7.30
2022-11-05T11:47:48.672Z,6.03
2022-11-05T11:50:40.009Z,6.17
2022-11-05T11:53:36.218Z,5.87
2022-11-05T11:56:16.801Z,6.47
2022-11-05T11:58:52.804Z,6.10
2022-11-05T12:01:46.181Z,6.23
2022-11-05T12:04:40.791Z,6.57
2022-11-05T12:07:38.710Z,6.13
2022-11-05T12:10:25.504Z,7.13
2022-11-05T12:13:09.971Z,5.80
2022-11-05T12:15:49.301Z,5.53
2022-11-05T12:18:40.258Z,5.43
2022-11-05T12:21:52.711Z,4.90
2022-11-05T12:25:10.702Z,5.67
2022-11-05T12:28:19.416Z,4.93
2022-11-05T12:31:27.493Z,5.23
2022-11-05T12:34:14.058Z,4.50
2022-11-05T12:37:21.334Z,5.57
2022-11-05T12:40:08.805Z,4.73
2022-11-05T12:43:15.366Z,4.00
2022-11-05T12:46:11.334Z,6.00
2022-11-05T12:49:08.398Z,8.40
2022-11-05T12:52:05.486Z,8.70
2022-11-05T12:55:44.094Z,5.50
2022-11-05T12:58:26.864Z,7.00
2022-11-05T13:01:04.887Z,5.27
2022-11-05T13:03:47.113Z,7.33
2022-11-05T13:06:27.823Z,5.93
2022-11-05T13:09:17.825Z,5.67
2022-11-05T13:11:58.629Z,6.10
2022-11-05T13:14:37.800Z,5.17
2022-11-05T13:17:18.815Z,5.90
2022-11-05T13:20:01.377Z,6.50
2022-11-05T13:22:44.958Z,5.23
2022-11-05T13:25:29.977Z,6.27
2022-11-05T13:28:17.941Z,5.57
2022-11-05T13:30:51.613Z,7.47
2022-11-05T13:33:29.052Z,6.07
2022-11-05T13:36:39.237Z,5.50
2022-11-05T13:39:24.962Z,5.50
2022-11-05T13:42:33.816Z,6.70
2022-11-05T13:46:09.362Z,5.67
2022-11-05T13:49:10.785Z,5.80
2022-11-05T13:51:53.895Z,5.77
2022-11-05T13:54:33.123Z,5.43
2022-11-05T13:57:53.530Z,5.63
2022-11-05T14:00:26.917Z,5.20
2022-11-05T14:02:58.536Z,6.13
2022-11-05T14:05:37.796Z,5.57
2022-11-05T14:08:27.623Z,5.10
2022-11-05T14:11:18.878Z,4.50
2022-11-05T14:13:51.188Z,5.50
2022-11-05T14:16:22.895Z,5.83
2022-11-05T14:19:14.115Z,5.43
2022-11-05T14:21:55.255Z,5.00
2022-11-05T14:24:21.911Z,5.27
2022-11-05T14:27:00.504Z,4.80
2022-11-05T14:29:49.802Z,5.30
2022-11-05T14:32:24.886Z,6.57
2022-11-05T14:35:17.725Z,5.30
2022-11-05T14:37:59.566Z,5.13
2022-11-05T14:40:39.540Z,6.03
2022-11-05T14:43:21.543Z,6.97
2022-11-05T14:46:06.045Z,7.43
2022-11-05T14:49:08.100Z,6.60
2022-11-05T14:51:44.030Z,9.17
2022-11-05T14:54:36.884Z,6.60
2022-11-05T14:57:04.105Z,6.57
2022-11-05T14:59:34.734Z,6.87
2022-11-05T15:02:20.053Z,6.40
2022-11-05T15:04:47.395Z,6.80
2022-11-05T15:07:34.555Z,5.87
2022-11-05T15:10:16.953Z,6.37
2022-11-05T15:12:56.486Z,6.83
2022-11-05T15:15:28.366Z,5.67
2022-11-05T15:18:05.249Z,6.20
2022-11-05T15:20:41.974Z,5.00
2022-11-05T15:23:16.203Z,6.30
2022-11-05T15:26:01.946Z,6.20
2022-11-05T15:28:41.313Z,6.43
2022-11-05T15:31:13.967Z,6.20
2022-11-05T15:33:44.188Z,6.33
2022-11-05T15:36:31.192Z,7.57
2022-11-05T15:39:28.019Z,7.00
2022-11-05T15:41:46.883Z,7.97
2022-11-05T15:44:26.887Z,8.03
2022-11-05T15:47:30.251Z,9.37
2022-11-05T15:50:01.839Z,14.93
2022-11-05T15:52:41.992Z,12.33
2022-11-05T15:55:14.715Z,10.87
2022-11-05T15:57:50.383Z,13.30
2022-11-05T16:00:25.013Z,11.97
2022-11-05T16:03:06.160Z,8.23
2022-11-05T16:05:40.749Z,10.47
2022-11-05T16:08:19.927Z,7.63
2022-11-05T16:10:51.785Z,6.87
2022-11-05T16:13:58.794Z,8.23
2022-11-05T16:16:33.951Z,7.83
2022-11-05T16:19:01.034Z,7.13
2022-11-05T16:21:28.027Z,7.77
2022-11-05T16:23:58.455Z,7.23
2022-11-05T16:27:02.410Z,7.30
2022-11-05T16:29:38.396Z,7.80
2022-11-05T16:32:15.887Z,10.63
2022-11-05T16:34:49.548Z,15.93
2022-11-05T16:37:22.092Z,17.30
2022-11-05T16:39:48.974Z,20.33
2022-11-05T16:42:24.436Z,17.53
2022-11-05T16:44:53.609Z,17.03
2022-11-05T16:47:21.573Z,10.87
2022-11-05T16:49:49.585Z,9.60
2022-11-05T16:52:16.989Z,9.27
2022-11-05T16:54:43.874Z,8.47
2022-11-05T16:57:28.598Z,10.23
2022-11-05T16:59:57.137Z,12.53
2022-11-05T17:02:24.159Z,14.70
2022-11-05T17:04:51.288Z,13.30
2022-11-05T17:07:18.119Z,15.63
2022-11-05T17:09:44.881Z,13.60
2022-11-05T17:12:14.489Z,16.67
2022-11-05T17:14:41.298Z,11.67
2022-11-05T17:17:08.395Z,14.70
2022-11-05T17:19:35.435Z,13.57
2022-11-05T17:22:02.189Z,9.77
2022-11-05T17:24:28.871Z,11.83
2022-11-05T17:26:55.561Z,10.53
2022-11-05T17:29:22.257Z,10.40
2022-11-05T17:31:49.061Z,9.47
2022-11-05T17:34:15.816Z,12.03
2022-11-05T17:36:42.565Z,9.50
2022-11-05T17:39:10.870Z,9.63
2022-11-05T17:41:37.644Z,8.77
2022-11-05T17:44:04.358Z,9.80
2022-11-05T17:46:31.073Z,10.13
2022-11-05T17:48:57.791Z,9.97
2022-11-05T17:51:24.645Z,9.43
2022-11-05T17:53:51.556Z,9.33
2022-11-05T17:56:32.198Z,10.93
2022-11-05T17:59:01.179Z,11.27
2022-11-05T18:01:35.487Z,7.97
2022-11-05T18:04:08.299Z,8.13
2022-11-05T18:06:40.454Z,9.20
2022-11-05T18:09:09.353Z,10.13
2022-11-05T18:11:37.264Z,12.17
2022-11-05T18:14:04.628Z,17.90
2022-11-05T18:16:31.380Z,13.00
2022-11-05T18:18:58.746Z,11.37
2022-11-05T18:21:25.748Z,10.23
2022-11-05T18:23:52.931Z,10.93
2022-11-05T18:26:20.150Z,11.13
2022-11-05T18:28:46.852Z,12.50
2022-11-05T18:31:18.464Z,19.40
2022-11-05T18:33:45.491Z,13.83
2022-11-05T18:36:25.472Z,14.83
2022-11-05T18:38:52.855Z,13.97
2022-11-05T18:41:20.535Z,11.77
2022-11-05T18:43:47.726Z,11.90
2022-11-05T18:46:35.752Z,11.60
2022-11-05T18:49:01.872Z,10.97
2022-11-05T18:51:28.747Z,10.80
2022-11-05T18:53:55.988Z,14.13
2022-11-05T18:56:24.132Z,10.37
2022-11-05T18:59:14.866Z,10.47
2022-11-05T19:01:41.199Z,10.47
2022-11-05T19:04:08.707Z,10.30
2022-11-05T19:06:36.701Z,11.23
2022-11-05T19:09:06.371Z,8.17
2022-11-05T19:11:33.416Z,10.27
2022-11-05T19:14:00.464Z,8.73
2022-11-05T19:16:30.319Z,10.63
2022-11-05T19:19:03.092Z,8.73
2022-11-05T19:21:30.192Z,8.93
2022-11-05T19:24:01.175Z,8.77
2022-11-05T19:26:29.356Z,8.40
2022-11-05T19:29:02.425Z,8.20
2022-11-05T19:31:31.028Z,8.13
2022-11-05T19:33:58.116Z,9.13
2022-11-05T19:36:25.666Z,11.47
2022-11-05T19:39:00.401Z,9.07
2022-11-05T19:41:27.826Z,12.13
2022-11-05T19:43:54.948Z,10.17
2022-11-05T19:46:25.764Z,8.77
2022-11-05T19:48:53.030Z,9.77
2022-11-05T19:51:26.141Z,9.57
2022-11-05T19:53:55.085Z,10.30
2022-11-05T19:56:25.854Z,10.07
2022-11-05T19:58:53.720Z,10.90
2022-11-05T20:01:23.614Z,11.20
2022-11-05T20:03:53.478Z,10.27
2022-11-05T20:06:26.321Z,9.80
2022-11-05T20:09:20.053Z,10.47
2022-11-05T20:11:40.690Z,8.47
2022-11-05T20:14:09.733Z,10.50
2022-11-05T20:16:38.166Z,11.80
2022-11-05T20:19:08.720Z,10.17
2022-11-05T20:21:36.156Z,11.23
2022-11-05T20:24:03.683Z,14.73
2022-11-05T20:26:31.124Z,9.47
2022-11-05T20:28:58.040Z,12.57
2022-11-05T20:31:25.489Z,10.23
2022-11-05T20:33:53.245Z,11.13
2022-11-05T20:36:23.994Z,11.47
2022-11-05T20:38:55.204Z,13.53
2022-11-05T20:41:22.777Z,13.97
2022-11-05T20:43:49.953Z,12.50
2022-11-05T20:46:19.312Z,11.87
2022-11-05T20:48:46.020Z,12.83
2022-11-05T20:51:17.499Z,11.43
2022-11-05T20:53:46.027Z,11.23
2022-11-05T20:56:23.069Z,11.17
2022-11-05T20:58:51.147Z,9.60
2022-11-05T21:01:19.463Z,10.40
2022-11-05T21:03:47.679Z,10.70
2022-11-05T21:06:14.696Z,9.53
2022-11-05T21:08:41.807Z,9.90
2022-11-05T21:11:10.181Z,14.93
2022-11-05T21:13:37.756Z,16.37
2022-11-05T21:16:07.774Z,13.97
2022-11-05T21:18:37.781Z,17.93
2022-11-05T21:21:07.140Z,17.63
2022-11-05T21:23:34.111Z,19.60
2022-11-05T21:26:10.680Z,16.97
2022-11-05T21:28:40.162Z,19.03
2022-11-05T21:31:08.665Z,17.87
2022-11-05T21:33:35.424Z,16.17
2022-11-05T21:36:11.789Z,17.57
2022-11-05T21:38:39.619Z,15.37
2022-11-05T21:41:07.828Z,19.33
2022-11-05T21:43:35.618Z,16.80
2022-11-05T21:46:04.760Z,16.23
2022-11-05T21:48:32.660Z,15.80
2022-11-05T21:51:18.228Z,15.50
2022-11-05T21:54:03.709Z,15.73
2022-11-05T21:56:49.782Z,13.57
2022-11-05T21:59:39.225Z,17.27
2022-11-05T22:02:08.407Z,17.47
2022-11-05T22:04:47.765Z,15.50
2022-11-05T22:07:18.448Z,15.83
2022-11-05T22:09:45.552Z,12.53
2022-11-05T22:12:12.601Z,12.77
2022-11-05T22:14:39.566Z,13.77
2022-11-05T22:17:07.915Z,9.93
2022-11-05T22:19:35.550Z,9.77
2022-11-05T22:22:04.503Z,10.90
2022-11-05T22:24:32.410Z,10.27
2022-11-05T22:27:02.472Z,11.10
2022-11-05T22:29:29.180Z,10.27
2022-11-05T22:31:57.075Z,9.53
2022-11-05T22:34:25.454Z,10.50
2022-11-05T22:36:52.272Z,13.70
2022-11-05T22:39:19.277Z,9.30
2022-11-05T22:41:46.637Z,9.43
2022-11-05T22:44:14.090Z,9.60
2022-11-05T22:46:41.742Z,8.47
2022-11-05T22:49:08.593Z,8.97
2022-11-05T22:51:38.630Z,8.47
2022-11-05T22:54:07.058Z,8.40
2022-11-05T22:56:38.538Z,8.80
2022-11-05T22:59:08.685Z,8.60
2022-11-05T23:01:35.482Z,7.47
2022-11-05T23:04:02.341Z,11.33
2022-11-05T23:06:50.890Z,8.60
2022-11-05T23:09:54.255Z,8.47
2022-11-05T23:12:33.959Z,9.13
2022-11-05T23:15:05.522Z,8.30
2022-11-05T23:17:51.456Z,11.47
2022-11-05T23:20:54.637Z,10.73
2022-11-05T23:23:40.229Z,9.97
2022-11-05T23:26:26.963Z,11.30
2022-11-05T23:28:53.646Z,11.10
2022-11-05T23:31:38.570Z,10.33
2022-11-05T23:34:05.258Z,10.73
2022-11-05T23:36:50.179Z,9.97
2022-11-05T23:39:17.005Z,18.17
2022-11-05T23:42:02.181Z,13.73
2022-11-05T23:44:47.508Z,11.20
2022-11-05T23:47:32.812Z,12.07
2022-11-05T23:49:59.516Z,10.43
2022-11-05T23:52:26.241Z,10.27
2022-11-05T23:54:52.950Z,9.83
2022-11-05T23:57:19.654Z,14.27
2022-11-05T23:59:46.364Z,9.43
